Time;durP1;ratioP1;P1;durP2;ratioP2;P2;SDS_P1;SDS_P2;PMS_P1;PMS_P2;Temp;Humidity;BMP_temperature;BMP_pressure;BME280_temperature;BME280_humidity;BME280_pressure;Samples;Min_cycle;Max_cycle;Signal;HPM_P1;HPM_P2
2021/08/19 00:00:06;;;;;;;10.48;6.05;;;;;;;10.95;73.84;97099.80;1671927;85;25474;-85
2021/08/19 00:02:35;;;;;;;7.75;5.08;;;;;;;10.96;73.85;97100.93;1668576;84;25199;-85
2021/08/19 00:05:03;;;;;;;8.60;5.17;;;;;;;10.98;73.80;97102.89;1670037;85;25622;-85
2021/08/19 00:07:29;;;;;;;9.25;5.25;;;;;;;10.98;73.85;97102.06;1671118;84;26018;-85
2021/08/19 00:09:57;;;;;;;10.05;5.42;;;;;;;10.97;73.77;97101.76;1659634;84;27356;-85
2021/08/19 00:12:29;;;;;;;8.58;5.42;;;;;;;10.93;73.69;97100.02;1653011;85;25445;-85
2021/08/19 00:14:58;;;;;;;7.80;5.17;;;;;;;10.88;73.76;97098.48;1622316;86;25507;-85
2021/08/19 00:17:24;;;;;;;8.53;4.87;;;;;;;10.83;73.88;97104.56;1654467;86;26185;-85
2021/08/19 00:20:05;;;;;;;13.62;5.50;;;;;;;10.84;74.07;97104.05;1644356;85;25603;-85
2021/08/19 00:22:32;;;;;;;7.83;5.03;;;;;;;10.85;74.10;97103.00;1640667;85;27600;-84
2021/08/19 00:25:03;;;;;;;8.38;5.00;;;;;;;10.85;74.14;97103.00;1642730;85;25980;-85
2021/08/19 00:27:34;;;;;;;9.85;6.25;;;;;;;10.86;74.31;97093.86;1658613;85;25411;-85
2021/08/19 00:30:06;;;;;;;9.15;5.72;;;;;;;10.85;74.33;97093.55;1635202;85;26148;-85
2021/08/19 00:32:54;;;;;;;7.03;5.03;;;;;;;10.81;74.45;97096.37;1615920;87;25246;-85
2021/08/19 00:35:10;;;;;;;9.80;5.70;;;;;;;10.83;74.60;97098.34;1658363;84;27828;-85
2021/08/19 00:37:49;;;;;;;8.45;5.50;;;;;;;10.85;74.61;97096.25;1648382;86;26213;-85
2021/08/19 00:40:16;;;;;;;8.45;5.47;;;;;;;10.80;74.67;97098.25;1644148;85;25483;-85
2021/08/19 00:42:43;;;;;;;7.42;4.97;;;;;;;10.79;74.81;97101.99;1665774;85;25669;-85
2021/08/19 00:45:11;;;;;;;9.95;5.55;;;;;;;10.85;74.95;97103.00;1637512;86;26186;-85
2021/08/19 00:47:39;;;;;;;8.43;5.28;;;;;;;10.89;75.02;97090.69;1660196;85;27401;-85
2021/08/19 00:50:08;;;;;;;10.82;5.80;;;;;;;10.93;75.10;97097.31;1635452;86;25522;-85
2021/08/19 00:52:37;;;;;;;12.75;6.25;;;;;;;10.98;75.13;97098.84;1623252;86;25611;-85
2021/08/19 00:55:06;;;;;;;11.38;6.05;;;;;;;11.03;75.13;97088.70;1635744;86;25695;-85
2021/08/19 00:57:33;;;;;;;10.18;5.72;;;;;;;11.08;75.17;97100.51;1663081;86;25473;-86
2021/08/19 00:59:59;;;;;;;10.23;6.05;;;;;;;11.09;74.96;97096.77;1645510;86;27358;-85
2021/08/19 01:02:26;;;;;;;10.85;5.75;;;;;;;11.10;75.05;97095.72;1619271;87;25539;-85
2021/08/19 01:04:55;;;;;;;11.97;5.70;;;;;;;11.12;75.01;97095.47;1621186;87;25257;-85
2021/08/19 01:07:22;;;;;;;10.25;6.08;;;;;;;11.13;75.11;97097.95;1619869;87;26207;-84
2021/08/19 01:10:00;;;;;;;10.90;7.40;;;;;;;11.18;75.11;97108.93;1645749;86;25306;-84
2021/08/19 01:12:19;;;;;;;10.32;6.80;;;;;;;11.24;75.28;97107.72;1615979;87;28008;-85
2021/08/19 01:14:46;;;;;;;11.03;7.20;;;;;;;11.23;75.41;97096.64;1648680;86;25670;-85
2021/08/19 01:17:14;;;;;;;11.68;7.10;;;;;;;11.27;75.47;97108.63;1628254;86;25517;-85
2021/08/19 01:19:49;;;;;;;9.60;6.15;;;;;;;11.28;75.42;97106.23;1616100;86;25719;-85
2021/08/19 01:22:17;;;;;;;8.13;5.60;;;;;;;11.32;75.46;97100.70;1663625;85;25436;-85
2021/08/19 01:24:44;;;;;;;7.47;5.70;;;;;;;11.37;75.54;97102.19;1663150;86;27462;-85
2021/08/19 01:27:16;;;;;;;8.83;6.45;;;;;;;11.38;75.70;97099.79;1662911;86;25431;-85
2021/08/19 01:29:46;;;;;;;12.78;7.60;;;;;;;11.40;75.72;97094.99;1643065;86;25521;-85
2021/08/19 01:32:14;;;;;;;11.18;7.30;;;;;;;11.44;75.71;97096.20;1658746;86;25663;-85
2021/08/19 01:34:44;;;;;;;10.18;6.90;;;;;;;11.44;75.75;97094.86;1635878;86;25241;-85
2021/08/19 01:37:13;;;;;;;10.60;7.08;;;;;;;11.46;75.90;97093.59;1662975;86;27423;-85
2021/08/19 01:39:40;;;;;;;10.60;7.47;;;;;;;11.33;75.87;97061.82;1656869;86;25965;-85
2021/08/19 01:42:07;;;;;;;8.38;6.95;;;;;;;11.50;75.87;97088.02;1649050;85;25501;-86
2021/08/19 01:44:40;;;;;;;12.40;6.25;;;;;;;11.51;75.88;97086.14;1636561;85;25436;-85
2021/08/19 01:47:09;;;;;;;8.13;5.53;;;;;;;11.48;75.96;97081.17;1663084;86;32744;-85
2021/08/19 01:49:36;;;;;;;7.87;5.05;;;;;;;11.45;76.04;97083.83;1648892;85;27282;-85
2021/08/19 01:52:05;;;;;;;8.80;6.50;;;;;;;11.44;76.04;97078.12;1661120;85;25533;-85
2021/08/19 01:54:33;;;;;;;9.23;6.42;;;;;;;11.46;76.14;97078.72;1679528;85;25576;-84
2021/08/19 01:56:59;;;;;;;9.53;6.35;;;;;;;11.49;76.13;97080.13;1670666;85;26278;-84
2021/08/19 01:59:30;;;;;;;7.78;5.58;;;;;;;11.52;76.16;97076.98;1659098;86;25434;-84
2021/08/19 02:01:57;;;;;;;8.55;6.10;;;;;;;11.50;76.15;97077.20;1668105;86;27052;-84
2021/08/19 02:04:26;;;;;;;7.65;5.67;;;;;;;11.53;76.20;97079.98;1667802;86;25731;-84
2021/08/19 02:06:55;;;;;;;8.15;5.83;;;;;;;11.51;76.20;97073.97;1668102;86;25494;-85
2021/08/19 02:09:21;;;;;;;10.72;5.60;;;;;;;11.43;76.21;97072.41;1665392;85;25696;-84
2021/08/19 02:11:48;;;;;;;8.73;5.20;;;;;;;11.43;76.37;97075.63;1668013;86;25552;-85
2021/08/19 02:14:18;;;;;;;10.03;5.58;;;;;;;11.44;76.56;97074.59;1668088;86;27403;-85
2021/08/19 02:16:44;;;;;;;13.38;6.42;;;;;;;11.44;76.56;97078.12;1647680;86;25515;-84
2021/08/19 02:19:12;;;;;;;10.18;5.90;;;;;;;11.46;76.56;97076.02;1673241;84;25627;-84
2021/08/19 02:21:39;;;;;;;8.65;6.22;;;;;;;11.50;76.62;97076.38;1668171;86;26058;-84
2021/08/19 02:24:06;;;;;;;8.70;5.92;;;;;;;11.52;76.55;97068.88;1668081;86;25466;-84
2021/08/19 02:26:36;;;;;;;13.10;7.33;;;;;;;11.52;76.54;97072.92;1670898;84;28201;-86
2021/08/19 02:29:02;;;;;;;10.45;6.62;;;;;;;11.47;76.45;97076.84;1643217;86;25558;-85
2021/08/19 02:31:29;;;;;;;8.40;5.10;;;;;;;11.45;76.57;97079.77;1642808;86;25462;-84
2021/08/19 02:33:58;;;;;;;6.05;4.75;;;;;;;11.44;76.62;97071.88;1667202;86;25542;-85
2021/08/19 02:36:24;;;;;;;6.78;5.10;;;;;;;11.45;76.84;97066.26;1670948;84;25438;-85
2021/08/19 02:38:51;;;;;;;9.28;5.20;;;;;;;11.44;76.77;97067.83;1673844;84;27323;-85
2021/08/19 02:41:18;;;;;;;11.78;6.78;;;;;;;11.46;76.83;97062.51;1668035;86;25526;-84
2021/08/19 02:43:44;;;;;;;10.88;7.37;;;;;;;11.47;76.97;97064.69;1671963;84;25487;-85
2021/08/19 02:46:12;;;;;;;12.70;7.95;;;;;;;11.49;76.91;97067.44;1668061;86;25822;-85
2021/08/19 02:48:41;;;;;;;13.53;8.23;;;;;;;11.34;76.91;97039.98;1668969;84;25457;-85
2021/08/19 02:51:11;;;;;;;12.13;6.85;;;;;;;11.51;76.97;97064.52;1668231;85;27354;-85
2021/08/19 02:53:38;;;;;;;13.28;6.80;;;;;;;11.53;77.04;97062.42;1675622;83;25550;-85
2021/08/19 02:56:06;;;;;;;9.00;5.78;;;;;;;11.56;77.10;97064.67;1674951;83;25552;-85
2021/08/19 02:58:33;;;;;;;9.28;6.10;;;;;;;11.58;77.06;97069.86;1665290;83;26235;-86
2021/08/19 03:01:01;;;;;;;11.38;6.33;;;;;;;11.44;77.11;97047.03;1684776;85;25598;-85
2021/08/19 03:03:28;;;;;;;10.88;6.80;;;;;;;11.55;77.09;97065.72;1683971;83;27877;-85
2021/08/19 03:05:55;;;;;;;8.98;6.08;;;;;;;11.60;77.22;97067.20;1660338;85;25584;-84
2021/08/19 03:08:22;;;;;;;9.38;5.53;;;;;;;11.65;77.19;97071.42;1672279;83;25519;-85
2021/08/19 03:10:49;;;;;;;10.90;5.72;;;;;;;11.68;77.19;97069.63;1697572;83;25735;-85
2021/08/19 03:13:17;;;;;;;8.68;6.05;;;;;;;11.69;77.25;97069.93;1691064;83;25522;-85
2021/08/19 03:15:45;;;;;;;7.03;5.25;;;;;;;11.69;77.32;97072.63;1682106;85;26064;-85
2021/08/19 03:18:12;;;;;;;8.83;5.03;;;;;;;11.68;77.32;97065.57;1684245;83;25537;-85
2021/08/19 03:20:41;;;;;;;8.03;5.37;;;;;;;11.71;77.37;97073.20;1690169;83;25588;-85
2021/08/19 03:23:08;;;;;;;7.12;5.15;;;;;;;11.73;77.51;97071.11;1684788;85;26062;-85
2021/08/19 03:25:36;;;;;;;16.80;9.15;;;;;;;11.77;77.52;97072.34;1687086;83;25439;-85
2021/08/19 03:28:05;;;;;;;27.75;16.80;;;;;;;11.80;77.47;97075.96;1661023;85;27375;-84
2021/08/19 03:30:32;;;;;;;28.92;16.52;;;;;;;11.86;77.43;97081.80;1683986;83;25525;-84
2021/08/19 03:32:59;;;;;;;18.23;11.00;;;;;;;11.90;77.43;97077.59;1665192;85;26168;-84
2021/08/19 03:35:26;;;;;;;19.48;11.78;;;;;;;11.94;77.41;97073.92;1675744;83;26008;-85
2021/08/19 03:37:52;;;;;;;18.48;11.15;;;;;;;11.98;77.48;97072.91;1687394;83;26027;-85
2021/08/19 03:40:19;;;;;;;13.88;9.73;;;;;;;11.99;77.54;97071.86;1684876;83;27915;-84
2021/08/19 03:42:46;;;;;;;16.00;8.48;;;;;;;11.99;77.69;97079.45;1664909;83;26278;-85
2021/08/19 03:45:16;;;;;;;10.85;7.28;;;;;;;11.95;77.69;97067.98;1689908;83;26069;-85
2021/08/19 03:47:42;;;;;;;11.45;6.45;;;;;;;11.92;77.70;97069.26;1685177;83;25663;-85
2021/08/19 03:50:09;;;;;;;16.25;6.53;;;;;;;11.90;77.73;97068.13;1713426;83;25535;-85
2021/08/19 03:52:37;;;;;;;11.12;6.83;;;;;;;11.92;77.74;97071.13;1694442;83;27573;-85
2021/08/19 03:55:06;;;;;;;13.68;6.87;;;;;;;11.95;77.80;97068.81;1684114;83;25528;-85
2021/08/19 03:57:33;;;;;;;18.17;7.42;;;;;;;11.97;77.89;97063.14;1660743;85;25547;-85
2021/08/19 04:00:01;;;;;;;13.90;7.03;;;;;;;11.84;77.88;97043.86;1684845;83;25649;-85
2021/08/19 04:02:28;;;;;;;13.53;6.50;;;;;;;12.04;77.92;97066.60;1684851;83;25495;-84
2021/08/19 04:04:55;;;;;;;10.45;6.03;;;;;;;11.95;78.01;97043.64;1668342;83;27344;-85
2021/08/19 04:07:21;;;;;;;11.33;6.00;;;;;;;12.13;78.08;97065.22;1659216;85;25553;-85
2021/08/19 04:09:48;;;;;;;11.38;6.78;;;;;;;12.15;78.05;97068.53;1679862;83;25557;-85
2021/08/19 04:12:17;;;;;;;11.20;6.05;;;;;;;12.19;77.97;97067.03;1682047;85;25836;-84
2021/08/19 04:14:50;;;;;;;11.22;5.28;;;;;;;12.25;78.02;97066.09;1676652;83;25450;-85
2021/08/19 04:17:17;;;;;;;11.90;5.53;;;;;;;12.29;78.13;97070.00;1663095;83;27394;-86
2021/08/19 04:19:45;;;;;;;9.75;4.53;;;;;;;12.31;77.95;97065.72;1684657;83;25497;-86
2021/08/19 04:22:12;;;;;;;9.60;4.90;;;;;;;12.36;77.88;97065.30;1682403;83;25178;-85
2021/08/19 04:24:39;;;;;;;7.45;5.50;;;;;;;12.45;77.84;97069.33;1683979;83;25763;-85
2021/08/19 04:27:06;;;;;;;14.58;6.33;;;;;;;12.53;77.83;97073.60;1658085;83;25498;-85
2021/08/19 04:29:38;;;;;;;12.30;6.15;;;;;;;12.58;77.89;97069.13;1658702;85;27442;-85
2021/08/19 04:32:08;;;;;;;16.20;6.95;;;;;;;12.66;77.85;97075.28;1681971;83;25576;-85
2021/08/19 04:34:35;;;;;;;10.88;5.87;;;;;;;12.61;77.83;97052.95;1697207;83;25489;-86
2021/08/19 04:37:12;;;;;;;11.33;5.83;;;;;;;12.80;77.78;97072.66;1687626;83;25653;-85
2021/08/19 04:39:42;;;;;;;7.33;5.33;;;;;;;12.74;77.71;97058.16;1691496;83;25530;-83
2021/08/19 04:42:10;;;;;;;8.48;5.10;;;;;;;12.93;77.80;97073.23;1709826;83;27845;-84
2021/08/19 04:44:37;;;;;;;9.83;5.65;;;;;;;12.98;77.76;97074.73;1684595;83;25500;-84
2021/08/19 04:47:06;;;;;;;6.85;5.05;;;;;;;13.04;77.66;97075.66;1695502;83;25368;-84
2021/08/19 04:49:33;;;;;;;7.80;4.80;;;;;;;13.10;77.62;97074.73;1696268;83;25661;-84
2021/08/19 04:52:01;;;;;;;8.78;5.17;;;;;;;13.15;77.53;97074.90;1684498;83;25323;-84
2021/08/19 04:54:28;;;;;;;5.85;4.15;;;;;;;13.21;77.47;97078.53;1684534;83;27963;-84
2021/08/19 04:56:55;;;;;;;6.08;4.12;;;;;;;13.22;77.42;97077.48;1708800;83;25476;-84
2021/08/19 04:59:22;;;;;;;8.60;4.17;;;;;;;13.21;77.33;97076.66;1694138;83;25405;-85
2021/08/19 05:01:51;;;;;;;7.85;4.70;;;;;;;13.22;77.27;97078.30;1690066;83;26405;-85
2021/08/19 05:04:18;;;;;;;7.80;4.15;;;;;;;13.22;77.27;97081.02;1692897;82;25580;-85
2021/08/19 05:06:45;;;;;;;5.67;4.15;;;;;;;13.21;77.21;97072.59;1684698;85;27386;-85
2021/08/19 05:09:13;;;;;;;7.33;3.85;;;;;;;13.26;77.23;97074.07;1689445;83;25584;-85
2021/08/19 05:11:40;;;;;;;5.55;4.00;;;;;;;13.29;77.28;97072.75;1705751;83;25450;-84
2021/08/19 05:14:07;;;;;;;6.78;4.67;;;;;;;13.34;77.27;97075.06;1659182;85;26126;-85
2021/08/19 05:16:40;;;;;;;6.53;4.25;;;;;;;13.37;77.12;97069.70;1675464;83;25318;-85
2021/08/19 05:19:06;;;;;;;7.90;4.17;;;;;;;13.47;77.17;97075.34;1666746;84;27424;-85
2021/08/19 05:21:33;;;;;;;7.78;3.70;;;;;;;13.56;77.09;97073.09;1664551;85;26243;-85
2021/08/19 05:24:01;;;;;;;6.25;3.50;;;;;;;13.63;76.99;97071.09;1667925;85;25483;-85
2021/08/19 05:26:28;;;;;;;4.90;3.65;;;;;;;13.68;76.81;97073.89;1635302;86;26066;-86
2021/08/19 05:28:54;;;;;;;10.90;7.12;;;;;;;13.74;76.70;97079.73;1620587;86;26329;-86
2021/08/19 05:31:22;;;;;;;7.08;3.80;;;;;;;13.82;76.68;97074.45;1640755;86;26936;-84
2021/08/19 05:33:54;;;;;;;7.97;3.58;;;;;;;13.92;76.52;97071.41;1665316;86;25492;-84
2021/08/19 05:36:21;;;;;;;6.30;3.87;;;;;;;14.03;76.48;97071.08;1664577;85;25559;-84
2021/08/19 05:38:48;;;;;;;6.67;4.00;;;;;;;14.10;76.39;97076.38;1662312;85;25711;-84
2021/08/19 05:41:16;;;;;;;5.30;3.30;;;;;;;14.14;76.21;97080.24;1636519;86;25534;-84
2021/08/19 05:43:52;;;;;;;5.60;3.50;;;;;;;14.15;75.86;97079.18;1655986;86;27904;-84
2021/08/19 05:46:19;;;;;;;5.75;3.98;;;;;;;14.20;75.71;97087.44;1665062;86;25483;-84
2021/08/19 05:48:54;;;;;;;4.78;3.30;;;;;;;14.20;75.78;97088.80;1662200;85;25494;-84
2021/08/19 05:51:21;;;;;;;5.97;3.92;;;;;;;14.12;75.73;97070.19;1662876;85;25746;-86
2021/08/19 05:53:57;;;;;;;4.87;3.45;;;;;;;14.30;75.51;97086.27;1639454;86;25568;-85
2021/08/19 05:56:25;;;;;;;4.30;3.27;;;;;;;14.24;75.48;97060.93;1661565;86;27652;-85
2021/08/19 05:59:01;;;;;;;7.05;4.20;;;;;;;14.44;75.40;97087.66;1655969;86;25518;-85
2021/08/19 06:01:30;;;;;;;7.17;3.90;;;;;;;14.52;75.30;97083.18;1659463;86;25596;-85
2021/08/19 06:03:59;;;;;;;5.75;3.70;;;;;;;14.63;75.05;97079.58;1635213;86;26074;-85
2021/08/19 06:06:28;;;;;;;6.05;3.75;;;;;;;14.71;74.83;97076.48;1638504;86;25664;-86
2021/08/19 06:08:55;;;;;;;7.55;4.17;;;;;;;14.82;74.78;97078.83;1662358;86;27344;-84
2021/08/19 06:11:22;;;;;;;6.22;3.50;;;;;;;14.92;74.50;97079.53;1643224;86;25789;-85
2021/08/19 06:13:48;;;;;;;4.67;3.50;;;;;;;14.99;74.36;97077.45;1660498;86;25565;-85
2021/08/19 06:16:15;;;;;;;4.50;3.67;;;;;;;15.07;74.26;97071.63;1658589;86;26117;-86
2021/08/19 06:18:42;;;;;;;6.15;3.00;;;;;;;15.17;74.03;97073.67;1660712;86;25451;-86
2021/08/19 06:21:12;;;;;;;8.45;4.00;;;;;;;15.29;73.89;97071.69;1657799;86;27414;-85
2021/08/19 06:23:39;;;;;;;6.33;3.80;;;;;;;15.41;74.04;97073.23;1648607;85;25955;-85
2021/08/19 06:26:15;;;;;;;9.43;4.00;;;;;;;15.42;73.79;97047.69;1656714;86;26146;-84
2021/08/19 06:28:44;;;;;;;7.17;4.15;;;;;;;15.52;73.54;97047.53;1660274;86;26246;-84
2021/08/19 06:31:11;;;;;;;6.72;3.80;;;;;;;15.75;73.47;97067.73;1636198;86;25550;-84
2021/08/19 06:33:38;;;;;;;6.30;3.58;;;;;;;15.81;73.11;97062.66;1661665;85;27359;-84
2021/08/19 06:36:07;;;;;;;3.87;3.15;;;;;;;15.88;73.00;97064.64;1651422;86;25507;-85
2021/08/19 06:38:35;;;;;;;6.28;3.35;;;;;;;15.97;72.99;97065.84;1653181;84;25545;-84
2021/08/19 06:41:05;;;;;;;4.75;3.20;;;;;;;16.05;72.74;97060.50;1660617;86;26253;-84
2021/08/19 06:43:32;;;;;;;4.03;3.00;;;;;;;16.11;72.36;97067.10;1657420;86;25511;-84
2021/08/19 06:45:59;;;;;;;3.67;3.10;;;;;;;16.22;72.50;97062.59;1659856;86;27799;-83
2021/08/19 06:48:25;;;;;;;7.05;3.65;;;;;;;16.32;72.06;97055.06;1661451;86;25539;-83
2021/08/19 06:50:52;;;;;;;6.03;3.27;;;;;;;16.43;72.05;97061.72;1643744;86;25623;-83
2021/08/19 06:53:19;;;;;;;5.67;3.17;;;;;;;16.58;71.98;97063.78;1658635;86;26892;-83
2021/08/19 06:55:46;;;;;;;4.78;3.08;;;;;;;16.74;71.88;97056.08;1652504;86;26023;-82
2021/08/19 06:58:13;;;;;;;4.17;3.20;;;;;;;16.92;71.79;97060.30;1700510;83;27571;-84
2021/08/19 07:00:39;;;;;;;5.85;2.92;;;;;;;17.08;71.41;97052.53;1671619;84;25561;-83
2021/08/19 07:03:06;;;;;;;4.12;2.85;;;;;;;17.21;71.05;97060.27;1704668;83;25833;-86
2021/08/19 07:05:34;;;;;;;5.05;3.33;;;;;;;17.32;70.95;97058.44;1660041;84;25664;-83
2021/08/19 07:08:03;;;;;;;4.30;2.72;;;;;;;17.42;70.53;97057.13;1694932;83;25437;-84
2021/08/19 07:10:30;;;;;;;3.10;2.62;;;;;;;17.52;70.23;97061.83;1669874;84;27373;-84
2021/08/19 07:12:57;;;;;;;4.65;3.20;;;;;;;17.58;69.44;97060.24;1686231;84;25234;-84
2021/08/19 07:15:25;;;;;;;3.75;3.12;;;;;;;17.64;69.76;97064.66;1670145;84;25587;-84
2021/08/19 07:17:52;;;;;;;5.10;2.98;;;;;;;17.72;69.43;97053.80;1698176;83;25641;-85
2021/08/19 07:20:19;;;;;;;3.83;2.77;;;;;;;17.82;69.26;97055.22;1700388;82;25465;-88
2021/08/19 07:22:51;;;;;;;5.12;3.00;;;;;;;17.91;68.82;97056.88;1670181;84;26740;-84
2021/08/19 07:25:21;;;;;;;3.87;2.70;;;;;;;17.99;68.52;97049.56;1701137;83;25729;-87
2021/08/19 07:27:51;;;;;;;5.05;3.17;;;;;;;18.07;68.32;97047.67;1700181;84;25561;-84
2021/08/19 07:30:18;;;;;;;3.65;3.00;;;;;;;18.11;68.00;97047.42;1700732;83;25684;-83
2021/08/19 07:32:50;;;;;;;3.55;3.22;;;;;;;18.07;68.04;97025.00;1670743;84;25518;-84
2021/08/19 07:35:16;;;;;;;4.37;2.72;;;;;;;18.25;67.51;97041.70;1703412;82;27493;-86
2021/08/19 07:37:48;;;;;;;6.00;3.20;;;;;;;18.32;67.34;97039.56;1698910;82;25541;-84
2021/08/19 07:40:22;;;;;;;3.87;3.22;;;;;;;18.41;67.20;97037.11;1696655;82;25529;-85
2021/08/19 07:42:58;;;;;;;3.12;2.72;;;;;;;18.54;66.99;97034.41;1697098;83;26217;-84
2021/08/19 07:45:29;;;;;;;5.08;3.05;;;;;;;18.80;66.75;97030.64;1698179;82;25488;-84
2021/08/19 07:48:14;;;;;;;7.67;3.22;;;;;;;19.22;66.58;97030.34;1701069;82;27531;-85
2021/08/19 07:50:49;;;;;;;5.45;3.17;;;;;;;19.65;66.14;97026.20;1709480;82;25829;-84
2021/08/19 07:53:15;;;;;;;4.08;3.12;;;;;;;20.07;65.40;97031.77;1703536;82;25531;-84
2021/08/19 07:55:44;;;;;;;3.85;3.20;;;;;;;20.48;64.85;97026.39;1698765;83;25635;-85
2021/08/19 07:58:13;;;;;;;4.35;2.87;;;;;;;20.91;64.42;97029.36;1697809;82;25465;-85
2021/08/19 08:00:40;;;;;;;5.58;3.00;;;;;;;21.31;63.61;97026.03;1696613;83;27370;-84
2021/08/19 08:03:10;;;;;;;4.80;3.25;;;;;;;21.73;62.97;97032.21;1700078;82;26011;-87
2021/08/19 08:05:40;;;;;;;3.42;2.60;;;;;;;22.13;62.22;97025.42;1700284;84;25672;-83
2021/08/19 08:08:12;;;;;;;4.67;2.42;;;;;;;22.58;61.87;97028.91;1670219;83;44995;-84
2021/08/19 08:10:42;;;;;;;5.30;2.70;;;;;;;22.89;60.91;97021.61;1698523;83;25489;-85
2021/08/19 08:13:16;;;;;;;2.55;2.17;;;;;;;23.13;60.06;97027.00;1715841;82;26724;-84
2021/08/19 08:15:48;;;;;;;2.90;2.47;;;;;;;23.15;59.16;96998.62;1708329;82;25553;-83
2021/08/19 08:18:20;;;;;;;2.50;2.27;;;;;;;23.35;58.73;97019.72;1691865;83;25536;-84
2021/08/19 08:20:48;;;;;;;1.90;1.80;;;;;;;23.53;58.30;97022.20;1697621;82;25686;-84
2021/08/19 08:23:20;;;;;;;3.95;2.37;;;;;;;23.73;57.68;97023.74;1701103;82;25559;-82
2021/08/19 08:25:48;;;;;;;2.75;2.22;;;;;;;23.91;57.12;97026.95;1696093;83;27463;-82
2021/08/19 08:28:26;;;;;;;3.60;2.22;;;;;;;24.02;56.40;97031.17;1697345;83;25476;-82
2021/08/19 08:30:51;;;;;;;2.47;2.27;;;;;;;24.10;56.13;97034.31;1718510;81;25507;-82
2021/08/19 08:33:22;;;;;;;3.50;2.52;;;;;;;24.34;55.76;97031.62;1719451;82;26207;-83
2021/08/19 08:35:51;;;;;;;3.37;2.00;;;;;;;24.60;55.25;97028.30;1705316;82;25546;-83
2021/08/19 08:38:20;;;;;;;4.97;2.10;;;;;;;24.86;54.53;97027.16;1710315;82;27450;-84
2021/08/19 08:40:53;;;;;;;2.62;1.75;;;;;;;24.76;53.73;97030.38;1691591;82;25879;-85
2021/08/19 08:43:23;;;;;;;2.35;2.20;;;;;;;24.76;53.65;97034.52;1666535;84;25503;-84
2021/08/19 08:45:52;;;;;;;2.72;1.95;;;;;;;24.71;53.26;97033.84;1691473;83;26182;-85
2021/08/19 08:48:27;;;;;;;2.47;2.27;;;;;;;24.72;52.98;97033.53;1665864;84;25641;-85
2021/08/19 08:50:57;;;;;;;2.42;1.87;;;;;;;24.55;52.71;97032.55;1678507;84;26359;-84
2021/08/19 08:53:27;;;;;;;2.58;2.22;;;;;;;24.61;52.21;97026.62;1699603;82;25768;-88
2021/08/19 08:55:54;;;;;;;3.55;2.27;;;;;;;24.88;52.27;97026.25;1697907;82;25555;-84
2021/08/19 08:58:22;;;;;;;2.52;2.10;;;;;;;25.14;51.99;97024.54;1697268;84;25448;-85
2021/08/19 09:00:50;;;;;;;2.67;2.25;;;;;;;25.05;51.73;97020.34;1698995;82;25572;-84
2021/08/19 09:03:22;;;;;;;4.08;2.60;;;;;;;25.11;51.55;97029.34;1699297;83;27363;-84
2021/08/19 09:05:54;;;;;;;3.72;2.20;;;;;;;24.96;51.40;97006.23;1704628;83;25489;-85
2021/08/19 09:08:25;;;;;;;2.30;2.10;;;;;;;24.86;50.94;97021.07;1700598;83;25516;-84
2021/08/19 09:10:56;;;;;;;2.22;2.02;;;;;;;24.56;50.56;97021.77;1687115;82;25726;-84
2021/08/19 09:13:28;;;;;;;3.80;2.93;;;;;;;24.25;50.54;97023.01;1707282;82;25588;-89
2021/08/19 09:16:15;;;;;;;3.42;2.08;;;;;;;23.95;50.64;97028.55;1696726;83;27373;-85
2021/08/19 09:18:46;;;;;;;2.65;2.02;;;;;;;23.61;50.62;97027.55;1693101;82;26049;-83
2021/08/19 09:21:23;;;;;;;2.17;1.98;;;;;;;23.03;49.87;97021.67;1698660;84;25563;-82
2021/08/19 09:24:14;;;;;;;3.05;2.15;;;;;;;22.95;50.17;97023.16;1688805;83;25661;-83
2021/08/19 09:26:42;;;;;;;2.67;2.12;;;;;;;22.92;50.78;97023.77;1698976;83;25558;-83
2021/08/19 09:29:21;;;;;;;2.27;2.08;;;;;;;22.88;51.21;97017.23;1700799;82;27436;-83
2021/08/19 09:31:51;;;;;;;3.17;2.25;;;;;;;22.67;51.54;97022.20;1699470;82;25714;-87
2021/08/19 09:34:20;;;;;;;4.12;1.90;;;;;;;22.52;52.02;97025.98;1699078;84;25473;-83
2021/08/19 09:36:46;;;;;;;3.92;2.20;;;;;;;22.45;51.48;97025.55;1701197;82;25739;-84
2021/08/19 09:39:20;;;;;;;2.95;2.22;;;;;;;22.35;51.42;97025.66;1699408;84;25526;-83
2021/08/19 09:41:55;;;;;;;2.40;1.90;;;;;;;22.20;51.40;97012.97;1701079;83;27428;-83
2021/08/19 09:44:32;;;;;;;2.22;1.90;;;;;;;22.36;51.55;97027.30;1720570;82;25603;-84
2021/08/19 09:47:05;;;;;;;2.33;2.12;;;;;;;22.42;51.37;97028.89;1701046;82;25237;-83
2021/08/19 09:49:37;;;;;;;2.22;2.02;;;;;;;22.27;51.49;97005.72;1697775;83;26195;-83
2021/08/19 09:52:12;;;;;;;2.98;1.98;;;;;;;22.18;50.96;97007.50;1699890;82;25579;-83
2021/08/19 09:54:42;;;;;;;2.65;2.08;;;;;;;22.16;51.06;97023.47;1698995;83;27406;-89
2021/08/19 09:57:13;;;;;;;3.80;2.55;;;;;;;22.06;51.24;97022.22;1690300;84;25445;-84
2021/08/19 09:59:44;;;;;;;2.83;2.35;;;;;;;21.96;51.33;97025.89;1686860;84;25721;-84
2021/08/19 10:02:11;;;;;;;17.95;5.47;;;;;;;21.92;51.29;97025.65;1653027;85;25753;-85
2021/08/19 10:04:40;;;;;;;13.43;4.45;;;;;;;21.97;52.02;97028.09;1681451;84;25523;-85
2021/08/19 10:07:08;;;;;;;13.60;4.70;;;;;;;22.04;52.26;97021.70;1683836;84;27435;-84
2021/08/19 10:09:35;;;;;;;5.72;2.20;;;;;;;22.10;52.32;97019.95;1684142;84;25469;-84
2021/08/19 10:12:02;;;;;;;2.65;2.00;;;;;;;22.10;51.70;97021.87;1687452;84;25561;-84
2021/08/19 10:14:31;;;;;;;3.02;2.30;;;;;;;22.03;51.50;97018.68;1691507;84;26071;-84
2021/08/19 10:16:58;;;;;;;2.52;2.33;;;;;;;22.00;51.45;97022.83;1691580;84;25498;-84
2021/08/19 10:19:36;;;;;;;2.67;2.02;;;;;;;21.94;51.37;97019.86;1691317;84;27438;-84
2021/08/19 10:22:15;;;;;;;4.67;2.50;;;;;;;21.71;51.35;96995.41;1666779;84;25703;-89
2021/08/19 10:24:47;;;;;;;3.05;2.50;;;;;;;21.83;51.56;97027.97;1691372;84;25451;-87
2021/08/19 10:27:24;;;;;;;2.10;1.90;;;;;;;21.69;51.33;97025.65;1683585;84;25704;-85
2021/08/19 10:29:59;;;;;;;2.55;2.10;;;;;;;21.50;51.23;97037.91;1687299;84;25533;-84
2021/08/19 10:32:32;;;;;;;3.17;2.67;;;;;;;21.50;51.23;97037.91;1690389;84;27316;-83
2021/08/19 10:35:15;;;;;;;3.35;2.40;;;;;;;21.31;51.66;97012.31;1690501;84;25536;-84
2021/08/19 10:37:56;;;;;;;5.35;3.00;;;;;;;21.31;51.66;97012.31;1667082;84;25594;-83
2021/08/19 10:40:38;;;;;;;3.12;2.10;;;;;;;21.44;51.87;97030.85;1682864;84;26154;-85
2021/08/19 10:43:35;;;;;;;3.17;2.50;;;;;;;21.45;52.10;97031.13;1684150;84;25625;-85
2021/08/19 10:46:12;;;;;;;3.10;2.60;;;;;;;21.41;51.80;97021.81;1689425;84;27367;-87
2021/08/19 10:48:52;;;;;;;2.77;2.45;;;;;;;21.40;51.81;97022.92;1681872;84;25519;-87
2021/08/19 10:51:24;;;;;;;4.45;2.72;;;;;;;21.38;51.77;97019.64;1677565;84;25178;-85
2021/08/19 10:53:56;;;;;;;2.60;2.05;;;;;;;21.42;52.10;97026.20;1689586;84;25836;-90
2021/08/19 10:56:43;;;;;;;4.20;2.10;;;;;;;21.43;51.83;97018.23;1663235;84;25531;-86
2021/08/19 10:59:33;;;;;;;3.50;2.47;;;;;;;21.63;52.05;96997.41;1676164;84;26338;-86
2021/08/19 11:02:00;;;;;;;7.47;2.27;;;;;;;21.65;51.64;97000.69;1655905;84;25397;-88
2021/08/19 11:04:47;;;;;;;6.15;2.90;;;;;;;21.80;51.40;97015.63;1696627;83;25687;-85
2021/08/19 11:07:50;;;;;;;3.05;2.25;;;;;;;21.74;50.96;97015.41;1676884;84;25678;-86
2021/08/19 11:10:22;;;;;;;4.37;2.10;;;;;;;21.71;50.87;97013.82;1694783;83;25534;-86
2021/08/19 11:12:52;;;;;;;2.60;2.40;;;;;;;21.55;50.98;97018.66;1693828;84;27928;-84
2021/08/19 11:15:19;;;;;;;2.80;2.40;;;;;;;21.55;50.98;97018.66;1694070;84;25225;-84
2021/08/19 11:18:00;;;;;;;3.47;2.40;;;;;;;21.50;50.68;97017.32;1692088;84;25616;-89
2021/08/19 11:20:29;;;;;;;3.67;2.45;;;;;;;;;;1693776;84;25746;-84
2021/08/19 11:23:09;;;;;;;2.67;2.00;;;;;;;21.33;50.90;97021.90;1692133;84;25454;-84
2021/08/19 11:25:45;;;;;;;3.27;1.90;;;;;;;21.28;50.79;97023.86;1686532;84;27094;-87
2021/08/19 11:28:16;;;;;;;3.85;2.70;;;;;;;21.16;50.83;97015.42;1694375;84;25485;-84
2021/08/19 11:30:49;;;;;;;2.98;2.27;;;;;;;21.16;50.83;97015.42;1665424;84;25541;-84
2021/08/19 11:33:26;;;;;;;4.12;2.30;;;;;;;21.23;50.83;97012.95;1664968;84;25523;-85
2021/08/19 11:35:57;;;;;;;3.58;2.33;;;;;;;21.30;50.78;97006.55;1692243;84;25564;-84
2021/08/19 11:38:26;;;;;;;3.35;2.65;;;;;;;21.34;50.68;97010.37;1690183;83;27314;-84
2021/08/19 11:40:58;;;;;;;3.47;2.30;;;;;;;21.40;50.96;97011.94;1686924;84;25548;-84
2021/08/19 11:43:30;;;;;;;2.33;2.10;;;;;;;21.45;51.17;97018.21;1689879;84;25507;-84